Time;durP1;ratioP1;P1;durP2;ratioP2;P2;SDS_P1;SDS_P2;PMS_P1;PMS_P2;Temp;Humidity;BMP_temperature;BMP_pressure;BME280_temperature;BME280_humidity;BME280_pressure;Samples;Min_cycle;Max_cycle;Signal;HPM_P1;HPM_P2
2023/06/08 00:00:04;;;;;;;5.13;4.40;;;;;;;16.07;80.14;97960.59;5070780;28;20207;-81
2023/06/08 00:02:30;;;;;;;4.90;4.40;;;;;;;15.97;81.21;97965.09;5071337;28;20272;-81
2023/06/08 00:05:02;;;;;;;5.77;4.43;;;;;;;15.89;81.84;97972.97;5071258;28;20227;-81
2023/06/08 00:07:29;;;;;;;5.10;4.60;;;;;;;16.03;81.06;97958.22;5071308;28;20261;-81
2023/06/08 00:09:56;;;;;;;6.13;4.87;;;;;;;16.05;80.67;97947.41;5070796;28;20199;-81
2023/06/08 00:12:22;;;;;;;5.53;4.47;;;;;;;16.07;80.07;97945.44;5071388;28;20214;-81
2023/06/08 00:14:49;;;;;;;5.33;4.57;;;;;;;16.03;80.12;97952.06;5071429;28;20227;-81
2023/06/08 00:17:15;;;;;;;4.40;4.00;;;;;;;15.92;80.61;97951.34;5070871;28;20582;-81
2023/06/08 00:19:42;;;;;;;5.17;4.17;;;;;;;15.81;81.67;97952.38;5069650;28;20234;-81
2023/06/08 00:22:13;;;;;;;6.67;4.37;;;;;;;15.72;82.66;97955.03;5071438;28;20214;-81
2023/06/08 00:24:40;;;;;;;4.23;3.80;;;;;;;15.63;83.70;97950.59;5071296;28;20312;-81
2023/06/08 00:27:07;;;;;;;5.43;4.10;;;;;;;15.61;83.70;97948.06;5070901;28;20219;-81
2023/06/08 00:29:33;;;;;;;4.10;3.70;;;;;;;15.57;83.91;97941.31;5070491;28;20552;-81
2023/06/08 00:32:00;;;;;;;4.10;3.70;;;;;;;15.52;84.44;97937.41;5070926;28;20219;-81
2023/06/08 00:34:27;;;;;;;4.63;4.10;;;;;;;15.49;84.64;97951.84;5070916;28;20229;-81
2023/06/08 00:36:55;;;;;;;4.43;4.00;;;;;;;15.46;83.95;97943.28;5071264;28;20256;-81
2023/06/08 00:39:23;;;;;;;4.13;3.73;;;;;;;15.41;84.17;97948.19;5070411;28;20661;-81
2023/06/08 00:41:49;;;;;;;5.33;3.80;;;;;;;15.38;84.02;97945.78;5071044;28;20215;-81
2023/06/08 00:44:16;;;;;;;4.33;3.80;;;;;;;15.31;84.35;97945.50;5071024;28;20213;-81
2023/06/08 00:46:43;;;;;;;4.20;3.80;;;;;;;15.28;84.56;97950.25;5070794;28;20223;-81
2023/06/08 00:49:15;;;;;;;4.73;3.83;;;;;;;15.24;84.60;97946.19;5070072;28;20208;-81
2023/06/08 00:51:42;;;;;;;4.00;3.60;;;;;;;15.31;84.95;97947.31;5070977;28;20212;-81
2023/06/08 00:54:12;;;;;;;4.40;4.00;;;;;;;15.28;85.88;97944.94;5070950;28;20207;-83
2023/06/08 00:56:41;;;;;;;4.40;4.00;;;;;;;15.27;86.14;97946.75;5070723;28;20227;-81
2023/06/08 00:59:10;;;;;;;4.47;4.07;;;;;;;15.21;86.60;97949.13;5069525;28;20242;-81
2023/06/08 01:01:38;;;;;;;4.40;3.97;;;;;;;15.20;86.77;97950.09;5070519;28;20657;-81
2023/06/08 01:04:06;;;;;;;4.27;3.87;;;;;;;15.12;86.78;97941.97;5070891;28;20207;-81
2023/06/08 01:06:35;;;;;;;4.17;3.77;;;;;;;14.98;87.54;97953.03;5070556;28;20235;-81
2023/06/08 01:09:11;;;;;;;4.10;3.70;;;;;;;14.90;88.76;97944.91;5070570;28;20207;-81
2023/06/08 01:11:53;;;;;;;5.10;4.60;;;;;;;14.84;89.51;97942.78;5070709;28;20207;-81
2023/06/08 01:14:28;;;;;;;5.17;4.27;;;;;;;14.80;90.34;97939.53;5070877;28;20218;-79
2023/06/08 01:17:00;;;;;;;4.47;4.07;;;;;;;14.77;90.55;97938.97;5070569;28;20719;-77
2023/06/08 01:19:40;;;;;;;4.80;4.40;;;;;;;14.74;91.50;97947.22;5070104;28;20634;-77
2023/06/08 01:22:15;;;;;;;5.00;4.50;;;;;;;14.74;92.22;97939.25;5070611;28;20556;-78
2023/06/08 01:24:49;;;;;;;5.17;4.67;;;;;;;14.79;92.34;97942.34;5070519;28;20238;-78
2023/06/08 01:27:16;;;;;;;5.63;5.13;;;;;;;14.83;92.17;97938.41;5070717;28;20237;-78
2023/06/08 01:29:44;;;;;;;4.83;4.33;;;;;;;14.86;92.13;97943.47;5070753;28;20210;-78
2023/06/08 01:32:11;;;;;;;7.20;4.43;;;;;;;14.88;91.71;97946.84;5074211;28;20203;-78
2023/06/08 01:34:37;;;;;;;5.60;4.43;;;;;;;14.81;91.82;97935.91;5074042;28;20224;-78
2023/06/08 01:37:13;;;;;;;4.63;4.20;;;;;;;14.72;92.39;97936.72;5074385;28;20211;-78
2023/06/08 01:39:52;;;;;;;4.17;3.83;;;;;;;14.65;92.57;97934.72;5073428;28;20231;-78
2023/06/08 01:42:20;;;;;;;5.03;4.53;;;;;;;14.66;92.63;97931.13;5074194;28;20219;-78
2023/06/08 01:44:53;;;;;;;5.97;5.00;;;;;;;14.71;92.19;97939.50;5073928;28;20721;-78
2023/06/08 01:47:23;;;;;;;6.47;4.90;;;;;;;14.51;93.16;97943.94;5073842;28;20207;-78
2023/06/08 01:49:51;;;;;;;5.33;4.40;;;;;;;14.34;94.37;97936.59;5073410;28;20199;-78
2023/06/08 01:52:18;;;;;;;5.90;4.97;;;;;;;14.22;94.98;97931.50;5073974;28;20211;-78
2023/06/08 01:54:46;;;;;;;5.80;4.67;;;;;;;14.13;95.47;97933.09;5074030;28;20227;-78
2023/06/08 01:57:12;;;;;;;6.17;5.50;;;;;;;14.03;97.34;97926.91;5073972;28;20602;-79
2023/06/08 01:59:39;;;;;;;6.17;5.27;;;;;;;13.99;97.72;97925.47;5072849;28;20339;-77
2023/06/08 02:02:06;;;;;;;5.57;5.03;;;;;;;13.99;98.68;97927.31;5073875;28;20216;-78
2023/06/08 02:04:32;;;;;;;5.17;4.67;;;;;;;13.98;98.75;97920.28;5073520;28;20850;-78
2023/06/08 02:06:59;;;;;;;5.80;4.73;;;;;;;13.99;98.88;97914.03;5073622;28;20207;-78
2023/06/08 02:09:25;;;;;;;5.00;4.60;;;;;;;14.01;99.35;97920.03;5072853;28;20568;-78
2023/06/08 02:12:07;;;;;;;4.93;4.47;;;;;;;14.02;99.78;97921.72;5073401;28;20268;-78
2023/06/08 02:14:33;;;;;;;4.73;4.33;;;;;;;14.04;98.98;97917.09;5073245;28;20670;-78
2023/06/08 02:17:00;;;;;;;4.50;4.10;;;;;;;14.01;98.73;97920.03;5073301;28;20215;-78
2023/06/08 02:19:27;;;;;;;4.83;4.33;;;;;;;13.99;98.92;97927.31;5072620;28;20239;-78
2023/06/08 02:21:53;;;;;;;4.20;3.80;;;;;;;13.96;99.70;97930.22;5073092;28;20208;-78
2023/06/08 02:24:20;;;;;;;4.87;4.37;;;;;;;13.89;99.91;97929.91;5073127;28;20211;-78
2023/06/08 02:26:46;;;;;;;4.87;4.37;;;;;;;13.82;100.00;97923.41;5073046;28;20696;-78
2023/06/08 02:29:14;;;;;;;5.00;4.40;;;;;;;13.79;100.00;97929.00;5072587;28;20204;-76
2023/06/08 02:31:40;;;;;;;4.83;4.43;;;;;;;13.73;100.00;97923.34;5073069;28;20226;-77
2023/06/08 02:34:07;;;;;;;4.97;4.50;;;;;;;13.68;100.00;97929.06;5073109;28;20584;-77
2023/06/08 02:36:34;;;;;;;4.93;4.43;;;;;;;13.67;100.00;97929.19;5072962;28;20231;-77
2023/06/08 02:39:01;;;;;;;4.70;4.20;;;;;;;13.62;100.00;97936.72;5072576;28;20334;-77
2023/06/08 02:41:27;;;;;;;5.23;4.73;;;;;;;13.59;100.00;97923.69;5071306;28;20211;-77
2023/06/08 02:43:53;;;;;;;5.13;4.63;;;;;;;13.56;100.00;97926.63;5072939;28;20211;-77
2023/06/08 02:46:21;;;;;;;5.00;4.50;;;;;;;13.56;100.00;97938.06;5072724;28;20242;-77
2023/06/08 02:48:49;;;;;;;5.57;5.07;;;;;;;13.54;100.00;97933.84;5072784;28;20202;-77
2023/06/08 02:51:16;;;;;;;5.90;5.17;;;;;;;13.55;100.00;97923.13;5072141;28;20218;-77
2023/06/08 02:53:43;;;;;;;5.20;4.70;;;;;;;13.54;100.00;97921.44;5072572;28;20210;-77
2023/06/08 02:56:11;;;;;;;4.93;4.53;;;;;;;13.51;100.00;97924.34;5072438;28;20706;-77
2023/06/08 02:58:41;;;;;;;8.67;5.07;;;;;;;13.47;100.00;97924.72;5072549;28;20208;-77
2023/06/08 03:01:14;;;;;;;5.87;5.30;;;;;;;13.45;100.00;97926.69;5071639;28;20266;-77
2023/06/08 03:03:43;;;;;;;5.60;5.03;;;;;;;13.43;100.00;97937.41;5072543;28;20208;-76
2023/06/08 03:06:09;;;;;;;6.03;5.33;;;;;;;13.33;100.00;97935.66;5072470;28;20400;-78
2023/06/08 03:08:36;;;;;;;5.90;5.40;;;;;;;13.29;100.00;97939.53;5072516;28;20207;-78
2023/06/08 03:11:03;;;;;;;6.20;5.67;;;;;;;13.24;100.00;97937.28;5072039;28;20616;-78
2023/06/08 03:13:29;;;;;;;5.67;5.17;;;;;;;13.26;100.00;97934.50;5072106;28;20627;-78
2023/06/08 03:15:56;;;;;;;6.17;5.07;;;;;;;13.26;100.00;97939.81;5072295;28;20318;-78
2023/06/08 03:18:24;;;;;;;6.47;5.10;;;;;;;13.22;100.00;97944.53;5072291;28;20227;-78
2023/06/08 03:20:52;;;;;;;6.27;5.63;;;;;;;13.21;100.00;97942.00;5071444;28;20231;-78
2023/06/08 03:23:19;;;;;;;5.80;5.20;;;;;;;13.17;100.00;97946.72;5072215;28;20280;-77
2023/06/08 03:25:48;;;;;;;5.50;4.90;;;;;;;13.18;100.00;97948.38;5071991;28;20285;-77
2023/06/08 03:28:15;;;;;;;6.13;5.37;;;;;;;13.17;100.00;97945.84;5071997;28;20286;-80
2023/06/08 03:30:41;;;;;;;5.43;4.93;;;;;;;13.19;100.00;97949.22;5071376;28;20206;-77
2023/06/08 03:33:08;;;;;;;5.50;5.00;;;;;;;13.21;100.00;97947.31;5071891;28;20207;-77
2023/06/08 03:35:35;;;;;;;5.10;4.60;;;;;;;13.22;100.00;97938.38;5071661;28;20227;-77
2023/06/08 03:38:03;;;;;;;5.37;4.87;;;;;;;13.24;100.00;97931.97;5072144;28;20571;-77
2023/06/08 03:40:29;;;;;;;5.57;5.07;;;;;;;13.29;100.00;97935.09;5071286;28;20332;-79
2023/06/08 03:42:56;;;;;;;5.23;4.73;;;;;;;13.39;100.00;97932.50;5071901;28;20214;-77
2023/06/08 03:45:22;;;;;;;6.10;5.30;;;;;;;13.55;100.00;97928.44;5086183;22;20258;-79
2023/06/08 03:47:49;;;;;;;5.90;5.30;;;;;;;13.56;100.00;97926.63;5072005;28;20242;-80
2023/06/08 03:50:15;;;;;;;6.30;4.90;;;;;;;13.59;100.00;97931.66;5071200;28;20206;-79
2023/06/08 03:52:43;;;;;;;5.20;4.67;;;;;;;13.66;100.00;97939.00;5071535;28;20212;-79
2023/06/08 03:55:11;;;;;;;5.67;4.33;;;;;;;13.69;100.00;97936.06;5071522;28;20239;-79
2023/06/08 03:57:37;;;;;;;5.57;4.80;;;;;;;13.67;100.00;97938.00;5071506;28;20218;-79
2023/06/08 04:00:07;;;;;;;5.63;4.73;;;;;;;13.67;100.00;97939.81;5070818;28;20227;-79
2023/06/08 04:02:33;;;;;;;5.20;4.70;;;;;;;13.72;100.00;97942.94;5071441;28;20215;-79
2023/06/08 04:05:00;;;;;;;4.67;4.27;;;;;;;13.77;100.00;97938.06;5071483;28;20207;-80
2023/06/08 04:07:26;;;;;;;4.70;4.30;;;;;;;13.88;100.00;97927.38;5071437;28;20255;-80
2023/06/08 04:09:53;;;;;;;7.27;5.30;;;;;;;13.97;100.00;97931.91;5070617;28;20206;-79
2023/06/08 04:12:20;;;;;;;5.47;4.97;;;;;;;14.08;100.00;97923.84;5071299;28;20203;-80
2023/06/08 04:14:48;;;;;;;5.83;5.27;;;;;;;14.14;100.00;97928.63;5071199;28;20569;-80
2023/06/08 04:17:15;;;;;;;5.50;4.93;;;;;;;14.03;100.00;97929.56;5071280;28;20211;-80
2023/06/08 04:19:42;;;;;;;4.97;4.57;;;;;;;13.91;100.00;97933.28;5070453;28;20227;-80
2023/06/08 04:22:08;;;;;;;6.17;4.93;;;;;;;13.80;100.00;97929.84;5071253;28;20212;-79
2023/06/08 04:24:36;;;;;;;5.53;5.03;;;;;;;13.67;100.00;97930.06;5071083;28;20207;-80
2023/06/08 04:27:03;;;;;;;5.67;5.13;;;;;;;13.65;100.00;97944.44;5071059;28;20223;-79
2023/06/08 04:29:31;;;;;;;6.00;5.40;;;;;;;13.64;100.00;97940.09;5070553;28;20199;-79
2023/06/08 04:31:58;;;;;;;6.17;5.57;;;;;;;13.70;100.00;97942.22;5070761;28;20208;-79
2023/06/08 04:34:24;;;;;;;5.90;5.13;;;;;;;13.73;100.00;97933.97;5071127;28;20581;-79
2023/06/08 04:36:51;;;;;;;6.70;5.17;;;;;;;13.83;100.00;97937.56;5071089;28;20774;-79
2023/06/08 04:39:18;;;;;;;6.10;5.50;;;;;;;13.91;100.00;97937.72;5070300;28;20212;-79
2023/06/08 04:41:45;;;;;;;6.07;5.40;;;;;;;13.95;100.00;97945.34;5071454;28;20211;-79
2023/06/08 04:44:13;;;;;;;6.10;5.50;;;;;;;14.04;100.00;97959.63;5071189;28;20294;-79
2023/06/08 04:46:42;;;;;;;7.00;6.03;;;;;;;14.17;100.00;97962.94;5070940;28;20235;-81
2023/06/08 04:49:09;;;;;;;6.50;5.73;;;;;;;14.24;100.00;97967.59;5070209;28;20666;-79
2023/06/08 04:51:40;;;;;;;6.70;6.10;;;;;;;14.31;100.00;97968.75;5070952;28;20213;-78
2023/06/08 04:54:13;;;;;;;5.83;5.33;;;;;;;14.41;100.00;97966.13;5071254;28;20214;-79
2023/06/08 04:56:41;;;;;;;5.63;5.17;;;;;;;14.54;100.00;97969.44;5071110;28;20339;-79
2023/06/08 04:59:08;;;;;;;7.57;5.77;;;;;;;14.68;100.00;97966.38;5070757;28;20207;-79
2023/06/08 05:01:34;;;;;;;6.10;5.27;;;;;;;14.83;100.00;97970.34;5070987;28;20207;-78
2023/06/08 05:04:06;;;;;;;5.87;5.20;;;;;;;15.05;100.00;97965.66;5070979;28;20203;-80
2023/06/08 05:06:33;;;;;;;6.07;5.47;;;;;;;15.43;99.56;97964.84;5075010;28;20231;-79
2023/06/08 05:09:00;;;;;;;6.30;5.70;;;;;;;15.78;96.62;97967.81;5074901;28;20677;-81
2023/06/08 05:11:26;;;;;;;5.03;4.63;;;;;;;16.13;94.21;97968.03;5074519;28;20580;-80
2023/06/08 05:13:53;;;;;;;5.40;4.90;;;;;;;16.16;93.03;97961.41;5083177;28;20242;-81
2023/06/08 05:16:19;;;;;;;6.20;5.60;;;;;;;16.07;90.65;97963.28;5086010;28;20227;-79
2023/06/08 05:18:46;;;;;;;7.17;6.10;;;;;;;16.24;88.77;97958.88;5086031;28;20287;-80
2023/06/08 05:21:13;;;;;;;6.10;5.57;;;;;;;16.77;85.72;97959.91;5075955;28;20301;-80
2023/06/08 05:23:40;;;;;;;6.83;6.07;;;;;;;17.41;81.92;97944.66;5074579;28;20208;-80
2023/06/08 05:26:06;;;;;;;7.27;5.90;;;;;;;18.08;78.09;97931.50;5074353;28;20609;-81
2023/06/08 05:28:33;;;;;;;6.20;5.60;;;;;;;18.70;73.52;97923.16;5074476;28;20211;-79
2023/06/08 05:31:00;;;;;;;5.73;5.23;;;;;;;19.29;70.62;97917.66;5073874;28;20682;-77
2023/06/08 05:33:27;;;;;;;8.00;5.50;;;;;;;19.84;67.99;97907.97;5074448;28;20203;-78
2023/06/08 05:35:53;;;;;;;6.10;5.50;;;;;;;20.26;68.33;97905.06;5074437;28;20231;-79
2023/06/08 05:38:21;;;;;;;6.00;5.50;;;;;;;20.58;68.47;97916.56;5074310;28;20211;-78
2023/06/08 05:40:48;;;;;;;7.57;5.83;;;;;;;20.86;66.60;97900.84;5073467;28;20231;-80
2023/06/08 05:43:14;;;;;;;7.03;6.10;;;;;;;20.69;66.35;97897.38;5074181;28;20210;-79
2023/06/08 05:45:41;;;;;;;5.87;5.27;;;;;;;20.25;68.27;97914.16;5073872;28;20239;-80
2023/06/08 05:48:08;;;;;;;5.90;5.37;;;;;;;19.82;70.61;97914.50;5074508;28;20214;-80
2023/06/08 05:50:35;;;;;;;7.37;6.53;;;;;;;19.45;74.17;97923.03;5073622;28;20277;-78
2023/06/08 05:53:01;;;;;;;6.10;5.50;;;;;;;19.27;76.99;97927.69;5074237;28;20210;-79
2023/06/08 05:55:30;;;;;;;6.23;5.60;;;;;;;19.39;76.52;97923.69;5073998;28;20231;-80
2023/06/08 05:57:56;;;;;;;6.67;6.07;;;;;;;19.63;75.21;97921.03;5074128;28;20295;-78
2023/06/08 06:00:24;;;;;;;6.53;5.93;;;;;;;20.19;71.04;97907.59;5073050;28;20231;-79
2023/06/08 06:02:50;;;;;;;5.90;5.40;;;;;;;20.51;68.65;97899.47;5074044;28;20202;-80
2023/06/08 06:05:16;;;;;;;6.83;5.73;;;;;;;20.55;68.52;97906.16;5073688;28;20612;-80
2023/06/08 06:07:43;;;;;;;6.83;5.70;;;;;;;20.36;68.15;97903.88;5073879;28;20219;-80
2023/06/08 06:10:10;;;;;;;7.57;5.27;;;;;;;20.47;68.81;97908.06;5072888;28;20206;-79
2023/06/08 06:12:38;;;;;;;5.67;5.17;;;;;;;21.18;66.17;97893.47;5073820;28;20302;-79
2023/06/08 06:15:06;;;;;;;6.47;5.10;;;;;;;21.99;62.97;97878.38;5073656;28;20234;-80
2023/06/08 06:17:32;;;;;;;6.73;5.30;;;;;;;22.65;59.36;97864.88;5073654;28;20211;-79
2023/06/08 06:19:59;;;;;;;5.50;5.00;;;;;;;23.25;57.77;97849.25;5072880;28;20231;-79
2023/06/08 06:22:25;;;;;;;5.70;5.20;;;;;;;23.63;55.03;97837.16;5073979;28;20207;-80
2023/06/08 06:24:52;;;;;;;6.07;5.10;;;;;;;24.03;53.35;97832.94;5073421;28;20588;-81
2023/06/08 06:27:19;;;;;;;4.97;4.57;;;;;;;24.22;52.87;97834.91;5073414;28;20207;-80
2023/06/08 06:29:48;;;;;;;5.50;5.00;;;;;;;24.43;51.80;97827.56;5072859;28;20242;-79
2023/06/08 06:32:14;;;;;;;6.03;4.70;;;;;;;24.32;51.99;97830.81;5073446;28;20207;-80
2023/06/08 06:34:43;;;;;;;5.80;4.50;;;;;;;23.75;51.95;97838.28;5073602;28;20209;-77
2023/06/08 06:37:09;;;;;;;5.33;4.37;;;;;;;23.15;54.38;97851.38;5073365;28;20207;-75
2023/06/08 06:39:36;;;;;;;5.17;4.70;;;;;;;22.82;54.73;97860.94;5072555;28;20207;-77
2023/06/08 06:42:02;;;;;;;5.10;4.70;;;;;;;22.77;55.76;97857.97;5073030;28;20228;-79
2023/06/08 06:44:29;;;;;;;4.80;4.40;;;;;;;23.11;55.59;97858.16;5076252;28;20285;-78
2023/06/08 06:46:57;;;;;;;4.70;4.30;;;;;;;23.69;53.08;97843.63;5076331;28;20288;-77
2023/06/08 06:49:23;;;;;;;6.67;4.47;;;;;;;24.11;52.79;97846.25;5074270;28;20294;-78
2023/06/08 06:51:50;;;;;;;5.00;4.50;;;;;;;24.62;52.25;97836.84;5073437;28;20213;-78
2023/06/08 06:54:16;;;;;;;5.53;4.33;;;;;;;24.88;50.91;97832.38;5079461;28;20211;-77
2023/06/08 06:56:43;;;;;;;5.03;4.63;;;;;;;25.06;50.03;97827.22;5072828;28;20250;-79
2023/06/08 06:59:10;;;;;;;6.07;4.53;;;;;;;25.07;49.43;97826.22;5072782;28;20299;-80
2023/06/08 07:01:36;;;;;;;4.90;4.50;;;;;;;25.17;49.05;97820.41;5072424;28;20313;-81
2023/06/08 07:04:05;;;;;;;4.90;4.50;;;;;;;25.07;50.04;97836.19;5073401;28;20231;-82
2023/06/08 07:06:35;;;;;;;4.37;4.03;;;;;;;24.69;50.26;97827.72;5073257;28;20239;-81
2023/06/08 07:09:04;;;;;;;5.03;4.63;;;;;;;24.26;51.35;97845.13;5072876;28;20739;-83
2023/06/08 07:11:30;;;;;;;5.40;4.80;;;;;;;23.97;51.79;97837.25;5072573;28;20259;-80
2023/06/08 07:13:57;;;;;;;5.30;4.73;;;;;;;23.68;52.85;97856.28;5072747;28;20565;-81
2023/06/08 07:16:24;;;;;;;5.17;4.27;;;;;;;23.51;54.26;97865.69;5072310;28;20235;-80
2023/06/08 07:18:51;;;;;;;5.23;4.80;;;;;;;23.41;53.84;97867.84;5072452;28;20582;-80
2023/06/08 07:21:20;;;;;;;5.00;4.60;;;;;;;23.25;53.99;97862.72;5071408;28;20270;-81
2023/06/08 07:23:48;;;;;;;5.07;4.57;;;;;;;23.28;54.25;97867.72;5072197;28;20238;-82
2023/06/08 07:26:14;;;;;;;5.50;4.40;;;;;;;23.20;52.43;97848.97;5072213;28;20288;-83
2023/06/08 07:28:41;;;;;;;5.07;4.57;;;;;;;22.99;53.59;97862.38;5072118;28;20208;-82
2023/06/08 07:31:07;;;;;;;5.10;4.60;;;;;;;22.82;55.38;97882.50;5071445;28;20207;-83
2023/06/08 07:33:34;;;;;;;4.73;4.33;;;;;;;22.84;55.10;97874.22;5072214;28;20209;-76
2023/06/08 07:36:00;;;;;;;4.67;4.27;;;;;;;22.85;56.21;97887.50;5071770;28;20314;-74
2023/06/08 07:38:28;;;;;;;4.30;3.90;;;;;;;22.85;55.83;97882.13;5071891;28;20211;-75
2023/06/08 07:40:55;;;;;;;4.80;4.40;;;;;;;22.78;54.88;97874.97;5071040;28;20227;-75
2023/06/08 07:43:21;;;;;;;4.53;4.10;;;;;;;22.64;54.39;97871.28;5071890;28;20207;-73
2023/06/08 07:45:48;;;;;;;4.77;4.40;;;;;;;22.63;54.96;97882.25;5071374;28;20238;-75
2023/06/08 07:48:14;;;;;;;5.47;4.80;;;;;;;22.73;55.16;97883.63;5071911;28;20257;-76
2023/06/08 07:50:41;;;;;;;5.10;4.60;;;;;;;22.78;53.60;97870.44;5070767;28;20312;-76
2023/06/08 07:53:07;;;;;;;5.20;4.70;;;;;;;22.93;53.09;97871.22;5071716;28;20582;-76
2023/06/08 07:55:35;;;;;;;4.93;4.43;;;;;;;22.98;53.41;97878.75;5071588;28;20231;-76
2023/06/08 07:58:02;;;;;;;5.23;4.73;;;;;;;23.03;52.24;97869.06;5071693;28;20218;-76
2023/06/08 08:00:31;;;;;;;5.03;4.53;;;;;;;23.11;51.79;97860.03;5070765;28;20270;-76
2023/06/08 08:02:57;;;;;;;5.67;5.10;;;;;;;22.98;52.49;97870.69;5071346;28;20667;-75
2023/06/08 08:05:24;;;;;;;6.13;5.00;;;;;;;23.06;53.19;97881.34;5071191;28;20235;-74
2023/06/08 08:07:50;;;;;;;5.83;5.27;;;;;;;23.18;52.84;97872.59;5068481;28;20226;-77
2023/06/08 08:10:17;;;;;;;6.05;5.55;;;;;;;23.20;53.94;97883.19;5068894;28;20511;-76
2023/06/08 08:12:45;;;;;;;5.53;5.03;;;;;;;23.15;54.30;97883.72;5071060;28;20207;-75
2023/06/08 08:15:11;;;;;;;5.63;5.13;;;;;;;23.22;53.54;97881.97;5071016;28;20231;-76
2023/06/08 08:17:38;;;;;;;5.30;4.80;;;;;;;23.22;53.44;97878.44;5071070;28;20285;-76
2023/06/08 08:20:07;;;;;;;6.17;5.57;;;;;;;23.33;54.54;97886.00;5070294;28;20863;-76
2023/06/08 08:22:33;;;;;;;6.07;5.33;;;;;;;23.38;53.98;97887.13;5071266;28;20611;-76
2023/06/08 08:25:00;;;;;;;5.13;4.70;;;;;;;23.46;52.79;97870.81;5071544;28;20214;-77
2023/06/08 08:27:27;;;;;;;5.60;4.97;;;;;;;23.56;51.74;97859.69;5071065;28;20693;-76
2023/06/08 08:29:54;;;;;;;5.30;4.90;;;;;;;23.51;51.83;97865.69;5070459;28;20221;-76
2023/06/08 08:32:21;;;;;;;5.33;4.93;;;;;;;23.59;51.12;97854.75;5071065;28;20226;-76
2023/06/08 08:34:50;;;;;;;5.67;5.17;;;;;;;23.57;50.71;97843.31;5070947;28;20283;-76
2023/06/08 08:37:17;;;;;;;5.83;5.33;;;;;;;23.56;50.13;97843.50;5071123;28;20207;-77
2023/06/08 08:39:44;;;;;;;5.40;4.90;;;;;;;23.54;50.66;97851.78;5071789;28;20310;-76
2023/06/08 08:42:12;;;;;;;5.50;5.00;;;;;;;23.63;51.62;97871.38;5075030;28;20223;-77
2023/06/08 08:44:41;;;;;;;6.00;5.40;;;;;;;23.60;51.04;97861.00;5075117;28;20203;-76
2023/06/08 08:47:13;;;;;;;5.30;4.80;;;;;;;23.61;50.00;97850.00;5074852;28;20219;-78
2023/06/08 08:49:43;;;;;;;5.33;4.83;;;;;;;23.67;49.65;97841.13;5075093;28;20590;-78
2023/06/08 08:52:10;;;;;;;5.40;4.90;;;;;;;23.62;49.11;97842.72;5091259;28;20199;-76
2023/06/08 08:54:38;;;;;;;5.00;4.60;;;;;;;23.58;48.89;97841.47;5087379;28;20204;-76
2023/06/08 08:57:08;;;;;;;5.10;4.40;;;;;;;23.57;48.22;97839.78;5083896;28;20235;-75
2023/06/08 08:59:36;;;;;;;4.57;4.17;;;;;;;23.55;49.01;97842.69;5074841;28;20207;-76
2023/06/08 09:02:04;;;;;;;5.50;4.60;;;;;;;23.81;48.11;97842.91;5075019;28;20235;-76
2023/06/08 09:04:32;;;;;;;6.00;5.50;;;;;;;23.83;48.83;97848.13;5074930;28;20242;-77
2023/06/08 09:06:59;;;;;;;6.00;5.40;;;;;;;23.85;49.97;97862.25;5074666;28;20238;-75
2023/06/08 09:09:26;;;;;;;6.00;5.40;;;;;;;23.86;50.08;97862.06;5073899;28;20207;-76
2023/06/08 09:11:57;;;;;;;5.40;4.90;;;;;;;23.90;51.24;97876.03;5074583;28;20210;-75
2023/06/08 09:14:23;;;;;;;5.60;5.00;;;;;;;24.04;51.32;97875.94;5074504;28;20275;-76
2023/06/08 09:16:50;;;;;;;5.93;5.33;;;;;;;24.19;50.23;97862.34;5074587;28;20227;-75
2023/06/08 09:19:16;;;;;;;5.70;5.20;;;;;;;24.23;48.20;97837.44;5073587;28;20674;-76
2023/06/08 09:21:45;;;;;;;5.90;5.40;;;;;;;24.25;49.91;97850.75;5074380;28;20232;-75
2023/06/08 09:24:14;;;;;;;8.63;5.97;;;;;;;24.23;50.82;97861.75;5074273;28;20207;-75
2023/06/08 09:26:47;;;;;;;6.93;6.23;;;;;;;24.27;51.27;97859.47;5074153;28;20234;-77
2023/06/08 09:29:30;;;;;;;6.13;5.63;;;;;;;24.31;50.06;97856.16;5070479;28;20207;-76
2023/06/08 09:31:57;;;;;;;6.20;5.60;;;;;;;24.38;49.22;97840.00;5071386;28;20207;-76
2023/06/08 09:34:23;;;;;;;6.83;5.70;;;;;;;24.27;49.80;97844.09;5071650;28;20204;-77
2023/06/08 09:36:52;;;;;;;5.60;5.10;;;;;;;24.32;49.55;97838.94;5070843;28;20237;-77
2023/06/08 09:39:19;;;;;;;6.40;5.50;;;;;;;24.34;49.65;97844.13;5070807;28;20585;-77
2023/06/08 09:41:57;;;;;;;6.57;5.87;;;;;;;24.51;47.30;97813.88;5072162;28;20329;-77
2023/06/08 09:44:23;;;;;;;6.07;5.30;;;;;;;24.51;47.34;97807.66;5070606;28;20214;-75
2023/06/08 09:46:50;;;;;;;5.13;4.63;;;;;;;24.50;47.64;97817.63;5057660;22;20243;-77
2023/06/08 09:49:17;;;;;;;5.20;4.70;;;;;;;24.51;47.52;97811.19;5030145;28;20205;-79
2023/06/08 09:51:48;;;;;;;6.87;5.80;;;;;;;24.62;47.47;97821.47;5032496;28;20296;-77
2023/06/08 09:54:17;;;;;;;5.50;5.00;;;;;;;24.71;47.20;97814.84;5032920;28;20263;-77
2023/06/08 09:56:47;;;;;;;5.53;5.03;;;;;;;24.83;47.21;97818.66;5030632;28;20713;-78
2023/06/08 09:59:16;;;;;;;4.73;4.37;;;;;;;24.95;46.72;97808.91;5029870;28;20213;-78
2023/06/08 10:01:45;;;;;;;5.73;4.90;;;;;;;25.11;46.18;97788.78;5029692;28;20232;-78
2023/06/08 10:04:21;;;;;;;5.77;5.27;;;;;;;25.21;46.29;97795.44;5031273;28;20274;-77
2023/06/08 10:06:51;;;;;;;5.60;5.10;;;;;;;25.37;46.65;97792.34;5033610;28;20232;-77
2023/06/08 10:09:24;;;;;;;6.00;5.43;;;;;;;25.46;46.50;97793.84;5031924;28;20235;-76
2023/06/08 10:11:52;;;;;;;5.40;4.90;;;;;;;25.60;46.48;97794.69;5030682;28;20679;-77
2023/06/08 10:14:19;;;;;;;6.30;5.70;;;;;;;25.66;46.85;97802.78;5030849;28;20303;-78
2023/06/08 10:16:48;;;;;;;6.50;5.53;;;;;;;25.65;46.82;97798.41;5030828;28;20859;-78
2023/06/08 10:19:15;;;;;;;6.40;5.90;;;;;;;25.70;46.98;97798.63;5032887;28;20227;-79
2023/06/08 10:21:42;;;;;;;6.13;5.53;;;;;;;25.83;46.88;97793.22;5032910;28;20315;-80
2023/06/08 10:24:10;;;;;;;5.32;4.90;;;;;;;25.88;48.30;97798.00;5030687;28;20295;-80
2023/06/08 10:26:38;;;;;;;5.60;5.10;;;;;;;25.96;46.05;97785.09;5030572;28;20738;-81
2023/06/08 10:29:10;;;;;;;5.93;5.33;;;;;;;25.94;45.33;97764.69;5030310;28;20208;-79
2023/06/08 10:31:40;;;;;;;5.97;5.37;;;;;;;25.98;45.35;97766.75;5032268;28;20255;-77
2023/06/08 10:34:09;;;;;;;5.70;5.07;;;;;;;26.06;44.70;97758.41;5033309;28;20213;-76
2023/06/08 10:36:39;;;;;;;6.30;5.80;;;;;;;26.14;44.12;97743.81;5031740;28;20237;-77
2023/06/08 10:39:10;;;;;;;6.43;5.37;;;;;;;26.18;44.03;97742.34;5030408;28;20241;-77
2023/06/08 10:41:43;;;;;;;6.10;5.50;;;;;;;26.22;44.90;97752.53;5030447;28;20228;-77
2023/06/08 10:44:27;;;;;;;6.03;5.43;;;;;;;26.32;42.97;97731.25;5031477;28;20260;-78
2023/06/08 10:47:00;;;;;;;6.17;5.57;;;;;;;26.29;45.01;97750.66;5032921;28;20753;-77
2023/06/08 10:49:31;;;;;;;5.60;5.10;;;;;;;26.33;43.20;97726.66;5031268;28;20216;-76
2023/06/08 10:51:59;;;;;;;5.70;5.20;;;;;;;26.42;42.69;97723.50;5029804;28;20234;-76
2023/06/08 10:54:26;;;;;;;5.80;5.30;;;;;;;26.51;42.80;97721.38;5030116;28;20213;-75
2023/06/08 10:56:57;;;;;;;6.07;5.50;;;;;;;26.45;43.44;97735.78;5029956;28;20236;-78
2023/06/08 10:59:31;;;;;;;5.73;5.10;;;;;;;26.47;42.54;97731.81;5032247;28;20566;-77
2023/06/08 11:02:01;;;;;;;5.37;4.87;;;;;;;26.38;40.65;97692.44;5031536;28;20694;-77
2023/06/08 11:04:29;;;;;;;5.33;4.93;;;;;;;26.31;39.62;97686.22;5032093;28;20326;-76
2023/06/08 11:07:02;;;;;;;5.73;5.23;;;;;;;26.34;41.35;97702.03;5032452;28;20742;-77
2023/06/08 11:09:31;;;;;;;5.73;5.10;;;;;;;26.56;42.91;97727.00;5031629;28;20667;-75
2023/06/08 11:11:59;;;;;;;5.80;5.30;;;;;;;26.71;43.14;97731.09;5032312;28;20279;-77
2023/06/08 11:14:25;;;;;;;6.00;5.50;;;;;;;26.96;44.51;97740.16;5032054;28;20663;-78
2023/06/08 11:16:53;;;;;;;6.10;5.50;;;;;;;27.08;42.85;97730.25;5031847;28;20240;-77
2023/06/08 11:19:20;;;;;;;7.25;5.43;;;;;;;27.08;41.19;97705.84;5030934;28;20213;-77
2023/06/08 11:21:50;;;;;;;5.83;5.33;;;;;;;27.09;41.15;97707.50;5031750;28;20235;-77
2023/06/08 11:24:16;;;;;;;6.37;5.77;;;;;;;27.32;42.03;97713.19;5032257;28;20208;-77
2023/06/08 11:26:45;;;;;;;6.57;6.03;;;;;;;27.39;44.49;97746.56;5031860;28;20604;-77
2023/06/08 11:29:13;;;;;;;6.50;5.90;;;;;;;27.40;42.13;97707.50;5031186;28;20208;-78
2023/06/08 11:31:41;;;;;;;6.85;6.15;;;;;;;27.52;42.33;97703.00;5031842;28;20205;-78
2023/06/08 11:34:11;;;;;;;6.78;6.20;;;;;;;27.56;39.86;97667.03;5031982;28;20209;-78